August 11, 2022

Time Code Weather Temp. Visibility Ceiling Wind METAR/SPECI
07:50
V
18 °C 10 km+ - Var Var 1 kt METAR EGBB 110650Z VRB01KT CAVOK 18/13 Q1024
07:20
V
17 °C 10 km+ - 320° 320° 2 kt METAR EGBB 110620Z 32002KT CAVOK 17/13 Q1024
06:50
V
14 °C 10 km+ - 320° 320° 3 kt METAR EGBB 110550Z 32003KT CAVOK 14/12 Q1024
06:20
V
12 °C 10 km+ - 330° 330° 1 kt METAR EGBB 110520Z 33001KT CAVOK 12/12 Q1024
05:50
V
12 °C 10 km+ - 340° 340° 2 kt METAR EGBB 110450Z 34002KT CAVOK 12/11 Q1024
05:20
V
12 °C 10 km+ - 340° 340° 2 kt METAR EGBB 110420Z 34002KT CAVOK 12/11 Q1024
04:50
V
12 °C 10 km+ - 350° 350° 1 kt METAR EGBB 110350Z 35001KT CAVOK 12/11 Q1024
04:20
V
13 °C 10 km+ - 350° 350° 2 kt METAR EGBB 110320Z 35002KT CAVOK 13/11 Q1024
03:50
V
13 °C 10 km+ - 320° 320° 2 kt METAR EGBB 110250Z 32002KT CAVOK 13/11 Q1024
03:20
V
13 °C 10 km+ - Var 000° 0 kt METAR EGBB 110220Z 00000KT CAVOK 13/11 Q1024
02:50
V
14 °C 10 km+ - 320° 320° 2 kt METAR EGBB 110150Z 32002KT CAVOK 14/12 Q1024
02:20
V
14 °C 10 km+ - Var 000° 0 kt METAR EGBB 110120Z 00000KT CAVOK 14/11 Q1024
01:50
V
15 °C 10 km+ - 150° 150° 3 kt METAR EGBB 110050Z 15003KT CAVOK 15/12 Q1024
01:20
V
15 °C 10 km+ - 170° 170° 5 kt METAR EGBB 110020Z 17005KT CAVOK 15/12 Q1024
00:50
V
17 °C 10 km+ - 150° 150° 5 kt METAR EGBB 102350Z 15005KT CAVOK 17/12 Q1024
00:20
V
17 °C 10 km+ - 150° 150° 4 kt METAR EGBB 102320Z 15004KT CAVOK 17/12 Q1024

August 10, 2022

Time Code Weather Temp. Visibility Ceiling Wind METAR/SPECI
23:50
V
20 °C 10 km+ - 130° 130° 5 kt METAR EGBB 102250Z 13005KT CAVOK 20/12 Q1024
23:20
V
21 °C 10 km+ - 120° 120° 7 kt METAR EGBB 102220Z 12007KT CAVOK 21/12 Q1024
22:50
V
21 °C 10 km+ - 090° 090° 6 kt METAR EGBB 102150Z 09006KT CAVOK 21/11 Q1024
22:20
V
17 °C 10 km+ - 130° 130° 4 kt METAR EGBB 102120Z 13004KT 090V160 CAVOK 17/07 Q1024
21:50
V
18 °C 10 km+ - 130° 130° 3 kt METAR EGBB 102050Z 13003KT 080V170 CAVOK 18/07 Q1024
21:20
V
19 °C 10 km+ - 140° 140° 3 kt METAR EGBB 102020Z 14003KT CAVOK 19/07 Q1024
20:50
V
23 °C 10 km+ - 100° 100° 4 kt METAR EGBB 101950Z 10004KT 080V160 CAVOK 23/05 Q1023
20:20
V
27 °C 10 km+ - 080° 080° 4 kt METAR EGBB 101920Z 08004KT CAVOK 27/04 Q1023
19:50
V
28 °C 10 km+ - 070° 070° 5 kt METAR EGBB 101850Z 07005KT CAVOK 28/04 Q1023
19:20
V
28 °C 10 km+ - 130° 130° 4 kt METAR EGBB 101820Z 13004KT 050V170 CAVOK 28/02 Q1023
18:50
V
29 °C 10 km+ - Var Var 4 kt METAR EGBB 101750Z VRB04KT CAVOK 29/03 Q1023
18:20
V
29 °C 10 km+ - 120° 120° 4 kt METAR EGBB 101720Z 12004KT 050V150 CAVOK 29/04 Q1023
17:50
V
29 °C 10 km+ - 100° 100° 6 kt METAR EGBB 101650Z 10006KT 040V150 CAVOK 29/05 Q1024
17:20
V
29 °C 10 km+ - 090° 090° 5 kt METAR EGBB 101620Z 09005KT 040V160 CAVOK 29/06 Q1024
16:50
V
30 °C 10 km+ - 090° 090° 5 kt METAR EGBB 101550Z 09005KT 070V140 CAVOK 30/07 Q1024
16:20
V
29 °C 10 km+ - 070° 070° 6 kt METAR EGBB 101520Z 07006KT 030V130 CAVOK 29/07 Q1024
15:50
V
29 °C 10 km+ - 060° 060° 6 kt METAR EGBB 101450Z 06006KT 360V160 CAVOK 29/07 Q1024
15:20
V
29 °C 10 km+ - Var Var 5 kt METAR EGBB 101420Z VRB05KT CAVOK 29/08 Q1025
14:50
V
29 °C 10 km+ - Var Var 4 kt METAR EGBB 101350Z VRB04KT CAVOK 29/08 Q1025
14:20
V
29 °C 10 km+ - 100° 100° 6 kt METAR EGBB 101320Z 10006KT 060V170 CAVOK 29/08 Q1026
13:50
V
28 °C 10 km+ - 070° 070° 7 kt METAR EGBB 101250Z 07007KT 340V150 CAVOK 28/09 Q1026
13:20
V
28 °C 10 km+ - Var Var 4 kt METAR EGBB 101220Z VRB04KT CAVOK 28/09 Q1026
12:50
V
27 °C 10 km+ - Var Var 7 kt METAR EGBB 101150Z VRB07KT CAVOK 27/10 Q1026
12:20
V
26 °C 10 km+ - 100° 100° 5 kt METAR EGBB 101120Z 10005KT 020V180 CAVOK 26/10 Q1026
11:50
V
26 °C 10 km+ - Var Var 4 kt METAR EGBB 101050Z VRB04KT CAVOK 26/11 Q1027
11:20
V
26 °C 10 km+ - 130° 130° 6 kt METAR EGBB 101020Z 13006KT 090V180 CAVOK 26/11 Q1027
10:50
V
25 °C 10 km+ - 060° 060° 5 kt METAR EGBB 100950Z 06005KT 010V110 CAVOK 25/11 Q1027
10:20
V
25 °C 10 km+ - 100° 100° 4 kt METAR EGBB 100920Z 10004KT 020V160 CAVOK 25/10 Q1027
09:50
V
24 °C 10 km+ - 140° 140° 4 kt METAR EGBB 100850Z 14004KT 080V190 CAVOK 24/10 Q1028
09:20
V
23 °C 10 km+ - Var Var 1 kt METAR EGBB 100820Z VRB01KT CAVOK 23/09 Q1028
08:50
V
21 °C 10 km+ - Var Var 2 kt METAR EGBB 100750Z VRB02KT CAVOK 21/11 Q1028
08:20
V
20 °C 10 km+ - 120° 120° 3 kt METAR EGBB 100720Z 12003KT 080V160 CAVOK 20/11 Q1028
07:50
V
18 °C 10 km+ - 130° 130° 4 kt METAR EGBB 100650Z 13004KT 090V160 CAVOK 18/12 Q1028
07:20
V
15 °C 10 km+ - 170° 170° 2 kt METAR EGBB 100620Z 17002KT CAVOK 15/12 Q1028
06:50
V
13 °C 10 km+ - Var Var 2 kt METAR EGBB 100550Z VRB02KT CAVOK 13/11 Q1028
06:20
V
12 °C 10 km+ - 180° 180° 1 kt METAR EGBB 100520Z 18001KT CAVOK 12/11 Q1028
05:50
V
11 °C 10 km+ - Var 000° 0 kt METAR EGBB 100450Z 00000KT CAVOK 11/10 Q1028
05:20
V
12 °C 10 km+ - Var 000° 0 kt METAR EGBB 100420Z 00000KT CAVOK 12/10 Q1028
04:50
V
12 °C 10 km+ - 160° 160° 2 kt METAR EGBB 100350Z 16002KT CAVOK 12/10 Q1028
04:20
V
13 °C 10 km+ - 170° 170° 3 kt METAR EGBB 100320Z 17003KT CAVOK 13/11 Q1028
03:50
V
15 °C 10 km+ - 150° 150° 2 kt METAR EGBB 100250Z 15002KT CAVOK 15/11 Q1028
03:20
V
16 °C 10 km+ - 170° 170° 3 kt METAR EGBB 100220Z 17003KT CAVOK 16/11 Q1028
02:50
V
17 °C 10 km+ - 180° 180° 4 kt METAR EGBB 100150Z 18004KT CAVOK 17/11 Q1028
02:20
V
17 °C 10 km+ - 170° 170° 4 kt METAR EGBB 100120Z 17004KT CAVOK 17/11 Q1028
01:50
V
16 °C 10 km+ - 160° 160° 5 kt METAR EGBB 100050Z 16005KT CAVOK 16/11 Q1028
01:20
V
17 °C 10 km+ - 150° 150° 6 kt METAR EGBB 100020Z 15006KT CAVOK 17/11 Q1028
00:50
V
17 °C 10 km+ - 150° 150° 6 kt METAR EGBB 092350Z 15006KT CAVOK 17/11 Q1028
00:20
V
17 °C 10 km+ - 140° 140° 7 kt METAR EGBB 092320Z 14007KT CAVOK 17/11 Q1028

August 9, 2022

Time Code Weather Temp. Visibility Ceiling Wind METAR/SPECI
23:50
V
16 °C 10 km+ - 320° 320° 3 kt METAR EGBB 092250Z 32003KT CAVOK 16/11 Q1028
23:20
V
17 °C 10 km+ - 010° 010° 2 kt METAR EGBB 092220Z 01002KT CAVOK 17/11 Q1028
22:50
V
17 °C 10 km+ - 330° 330° 3 kt METAR EGBB 092150Z 33003KT CAVOK 17/11 Q1028
22:20
V
18 °C 10 km+ - 070° 070° 4 kt METAR EGBB 092120Z 07004KT 020V150 CAVOK 18/11 Q1028
21:50
V
21 °C 10 km+ - 120° 120° 3 kt METAR EGBB 092050Z 12003KT 070V170 CAVOK 21/11 Q1028
21:20
V
20 °C 10 km+ - 020° 020° 4 kt METAR EGBB 092020Z 02004KT CAVOK 20/12 Q1028
20:50
V
25 °C 10 km+ - 010° 010° 5 kt METAR EGBB 091950Z 01005KT CAVOK 25/10 Q1028
20:20
V
25 °C 10 km+ - 020° 020° 4 kt METAR EGBB 091920Z 02004KT CAVOK 25/11 Q1027
19:50
V
26 °C 10 km+ - 040° 040° 5 kt METAR EGBB 091850Z 04005KT 330V080 CAVOK 26/10 Q1027
19:20
V
27 °C 10 km+ - 070° 070° 4 kt METAR EGBB 091820Z 07004KT 360V110 CAVOK 27/10 Q1027
18:50
V
27 °C 10 km+ - 310° 310° 5 kt METAR EGBB 091750Z 31005KT 260V360 CAVOK 27/10 Q1027
18:20
V
28 °C 10 km+ - 130° 130° 3 kt METAR EGBB 091720Z 13003KT 040V190 CAVOK 28/10 Q1027
17:50
V
27 °C 10 km+ - 230° 230° 3 kt METAR EGBB 091650Z 23003KT 150V290 CAVOK 27/10 Q1027
17:20
V
28 °C 10 km+ - 090° 090° 6 kt METAR EGBB 091620Z 09006KT 030V140 CAVOK 28/11 Q1027
16:50
V
28 °C 10 km+ - 360° 360° 3 kt METAR EGBB 091550Z 36003KT 320V050 CAVOK 28/11 Q1028
16:20
V
27 °C 10 km+ - Var Var 3 kt METAR EGBB 091520Z VRB03KT CAVOK 27/10 Q1028
15:50
V
27 °C 10 km+ - Var Var 4 kt METAR EGBB 091450Z VRB04KT CAVOK 27/11 Q1028
15:20
V
28 °C 10 km+ - 290° 290° 6 kt METAR EGBB 091420Z 29006KT 230V340 CAVOK 28/11 Q1028
14:50
V
27 °C 10 km+ - Var Var 4 kt METAR EGBB 091350Z VRB04KT CAVOK 27/11 Q1028
14:20
V
27 °C 10 km+ - Var Var 5 kt METAR EGBB 091320Z VRB05KT CAVOK 27/11 Q1028
13:50
V
26 °C 10 km+ - 150° 150° 5 kt METAR EGBB 091250Z 15005KT 110V180 CAVOK 26/11 Q1029
13:20
V
25 °C 10 km+ - 160° 160° 5 kt METAR EGBB 091220Z 16005KT 090V240 CAVOK 25/12 Q1029
12:50
V
25 °C 10 km+ - 150° 150° 4 kt METAR EGBB 091150Z 15004KT 080V210 CAVOK 25/12 Q1029
12:20
V
26 °C 10 km+ - Var Var 3 kt METAR EGBB 091120Z VRB03KT CAVOK 26/13 Q1030
11:50
V
24 °C 10 km+ - 320° 320° 3 kt METAR EGBB 091050Z 32003KT 250V050 CAVOK 24/13 Q1030
11:20
V
24 °C 10 km+ - 310° 310° 3 kt METAR EGBB 091020Z 31003KT 250V070 CAVOK 24/13 Q1030
10:50
V
23 °C 10 km+ - Var Var 3 kt METAR EGBB 090950Z VRB03KT CAVOK 23/13 Q1030
10:20
V
22 °C 10 km+ - Var Var 3 kt METAR EGBB 090920Z VRB03KT CAVOK 22/13 Q1030
09:50
V
20 °C 10 km+ - 020° 020° 3 kt METAR EGBB 090850Z 02003KT 300V110 CAVOK 20/13 Q1030
09:20
V
19 °C 10 km+ - 350° 350° 3 kt METAR EGBB 090820Z 35003KT 290V060 CAVOK 19/12 Q1030
08:50
V
18 °C 10 km+ - 320° 320° 3 kt METAR EGBB 090750Z 32003KT 270V010 CAVOK 18/12 Q1030
08:20
V
17 °C 10 km+ - 010° 010° 3 kt METAR EGBB 090720Z 01003KT 310V070 CAVOK 17/11 Q1030
07:50
V
16 °C 10 km+ - 360° 360° 5 kt METAR EGBB 090650Z 36005KT CAVOK 16/12 Q1030
07:20
V
15 °C 10 km+ - 360° 360° 3 kt METAR EGBB 090620Z 36003KT 310V030 CAVOK 15/11 Q1030
06:50
V
13 °C 10 km+ - 330° 330° 3 kt METAR EGBB 090550Z 33003KT CAVOK 13/11 Q1030
06:20
V
11 °C 10 km+ - 330° 330° 3 kt METAR EGBB 090520Z 33003KT CAVOK 11/11 Q1029
Older data

We and third parties follow your internet behavior on our website with cookies. If you continue, we assume you agree with our cookie policy. Learn more